Etusivu
METAR-TAF:

METAR-TAF

Lentoasemat :

Deming, New Mexico, Yhdysvallat

Leveyspiiri: 32-15-44N, Pituuspiiri: 107-43-14W, korkeus merenpinnasta: 1315 m

Tämänhetkinen sää

Tämä raportti tehtiin 42 minuuttia sitten, kello 20.53 UTC
Tuuli 11 kn lounaasta
Lämpötila 20°C
Kosteus 24%
Ilmanpaine 1018 hPa
Näkyvyys: 16.1 km
selkeää

METAR: KDMN 162053Z AUTO 22011KT 10SM CLR 20/M01 A3007 RMK AO2 SLP148 T02001011 56023

Aika: 14:35 (21:35 UTC)

Sääennuste

Tämä raportti tehtiin 4 tuntia ja 15 minuuttia sitten, kello 17.20 UTC
Ennuste voimassa 16. päivästä klo 18 UTC - 17. päivään klo 18 UTC
Tuuli 7 kn lännestä/lounaasta
Näkyvyys: 10 km
Hajanaisia pilviä 25000 ft:n korkeudessa
From 17. päivästä klo 0200 UTC
Tuuli 6 kn lännestä
Näkyvyys: 10 km
Muutamia pilviä 25000 ft:n korkeudessa
From 17. päivästä klo 1200 UTC
Tuuli 9 kn koillisesta
Näkyvyys: 10 km
selkeää

TAF: KDMN 161720Z 1618/1718 24007KT P6SM SCT250 FM170200 28006KT P6SM FEW250 FM171200 05009KT P6SM SKC

Säähavainnot ja -ennusteet yli 4000 lentoasemalta (METAR- ja TAF-raportit).

Käytössä olevat sääasemat on merkitty karttaan keltaisilla ja punaisilla pisteillä.

Aseta hiiri pisteen päälle nähdäksesi sääaseman nimen.

Klikkaa sitten nähdäksesi säähavainnot ja -ennusteet.

Kartan vaihtaminen: klikkaa mustalla rastilla varustettuja vihreitä pisteitä, niin voit zoomata sisään; viivalla varustettua vihreää pistettä, niin voit zoomata ulos tai vihreitä nuolia, niin pääset viereisille kartoille.


METAR-TAF: